createdAt,value
2018-09-24T00:01:32.892Z,8.60
2018-09-24T00:04:00.938Z,8.60
2018-09-24T00:06:29.101Z,8.60
2018-09-24T00:08:57.144Z,8.50
2018-09-24T00:11:25.180Z,8.50
2018-09-24T00:13:53.222Z,8.40
2018-09-24T00:16:21.258Z,8.30
2018-09-24T00:18:49.311Z,8.30
2018-09-24T00:21:17.410Z,8.30
2018-09-24T00:23:45.446Z,8.30
2018-09-24T00:26:13.510Z,8.20
2018-09-24T00:28:41.554Z,8.20
2018-09-24T00:31:09.596Z,8.30
2018-09-24T00:33:37.655Z,8.40
2018-09-24T00:36:05.727Z,8.40
2018-09-24T00:38:33.792Z,8.50
2018-09-24T00:41:01.852Z,8.50
2018-09-24T00:43:29.897Z,8.50
2018-09-24T00:45:57.918Z,8.50
2018-09-24T00:48:25.960Z,8.50
2018-09-24T00:50:53.991Z,8.60
2018-09-24T00:53:22.026Z,8.60
2018-09-24T00:55:50.095Z,8.50
2018-09-24T00:58:18.136Z,8.40
2018-09-24T01:00:46.182Z,8.30
2018-09-24T01:03:14.263Z,8.30
2018-09-24T01:05:42.295Z,8.40
2018-09-24T01:08:10.330Z,8.50
2018-09-24T01:10:38.386Z,8.60
2018-09-24T01:13:06.425Z,8.60
2018-09-24T01:15:34.477Z,8.70
2018-09-24T01:18:02.514Z,8.60
2018-09-24T01:20:30.561Z,8.60
2018-09-24T01:22:58.604Z,8.60
2018-09-24T01:25:26.646Z,8.60
2018-09-24T01:27:54.691Z,8.60
2018-09-24T01:30:22.739Z,8.50
2018-09-24T01:32:50.800Z,8.40
2018-09-24T01:35:18.843Z,8.30
2018-09-24T01:37:46.874Z,8.30
2018-09-24T01:40:14.931Z,8.20
2018-09-24T01:42:42.967Z,8.20
2018-09-24T01:45:11.011Z,8.20
2018-09-24T01:47:39.061Z,8.20
2018-09-24T01:50:07.110Z,8.20
2018-09-24T01:52:35.148Z,8.20
2018-09-24T01:55:03.196Z,8.20
2018-09-24T01:57:31.227Z,8.20
2018-09-24T01:59:59.272Z,8.10
2018-09-24T02:02:27.323Z,8.20
2018-09-24T02:04:55.361Z,8.10
2018-09-24T02:07:23.407Z,8.10
2018-09-24T02:09:51.447Z,8.20
2018-09-24T02:12:19.479Z,8.20
2018-09-24T02:14:47.517Z,8.20
2018-09-24T02:17:16.492Z,8.30
2018-09-24T02:19:45.287Z,8.20
2018-09-24T02:22:13.755Z,8.20
2018-09-24T02:24:41.852Z,8.30
2018-09-24T02:27:11.038Z,8.30
2018-09-24T02:29:39.616Z,8.30
2018-09-24T02:32:07.673Z,8.20
2018-09-24T02:34:35.738Z,8.10
2018-09-24T02:37:03.787Z,8.10
2018-09-24T02:39:31.842Z,8.10
2018-09-24T02:41:59.880Z,8.20
2018-09-24T02:44:28.355Z,8.20
2018-09-24T02:46:56.387Z,8.20
2018-09-24T02:49:24.437Z,8.20
2018-09-24T02:51:52.668Z,8.30
2018-09-24T02:54:20.719Z,8.20
2018-09-24T02:56:50.848Z,8.20
2018-09-24T02:59:19.262Z,8.20
2018-09-24T03:01:47.291Z,8.20
2018-09-24T03:04:15.332Z,8.30
2018-09-24T03:06:43.374Z,8.30
2018-09-24T03:09:15.613Z,8.30
2018-09-24T03:11:44.088Z,8.30
2018-09-24T03:14:12.136Z,8.30
2018-09-24T03:16:40.164Z,8.30
2018-09-24T03:19:08.201Z,8.20
2018-09-24T03:21:36.247Z,8.20
2018-09-24T03:24:04.280Z,8.20
2018-09-24T03:26:32.317Z,8.10
2018-09-24T03:29:00.359Z,8.10
2018-09-24T03:31:29.483Z,8.00
2018-09-24T03:33:57.533Z,8.00
2018-09-24T03:36:25.568Z,8.00
2018-09-24T03:38:53.616Z,7.90
2018-09-24T03:41:21.668Z,8.00
2018-09-24T03:43:49.707Z,8.00
2018-09-24T03:46:17.752Z,8.00
2018-09-24T03:48:45.792Z,8.00
2018-09-24T03:51:13.839Z,8.10
2018-09-24T03:53:41.880Z,8.10
2018-09-24T03:56:09.920Z,8.20
2018-09-24T03:58:37.962Z,8.20
2018-09-24T04:01:06.003Z,8.20
2018-09-24T04:03:34.034Z,8.30
2018-09-24T04:06:07.623Z,8.30
2018-09-24T04:08:41.145Z,8.30
2018-09-24T04:11:14.639Z,8.30
2018-09-24T04:13:48.287Z,8.30
2018-09-24T04:16:21.744Z,8.30
2018-09-24T04:18:55.152Z,8.20
2018-09-24T04:21:28.603Z,8.30
2018-09-24T04:24:02.232Z,8.30
2018-09-24T04:26:35.726Z,8.30
2018-09-24T04:29:09.271Z,8.30
2018-09-24T04:31:42.768Z,8.30
2018-09-24T04:34:16.345Z,8.30
2018-09-24T04:36:49.806Z,8.20
2018-09-24T04:39:23.380Z,8.20
2018-09-24T04:41:57.011Z,8.10
2018-09-24T04:44:30.627Z,8.10
2018-09-24T04:47:03.967Z,8.10
2018-09-24T04:49:37.511Z,8.10
2018-09-24T04:52:11.083Z,8.00
2018-09-24T04:54:44.728Z,8.10
2018-09-24T04:57:18.383Z,8.10
2018-09-24T04:59:52.001Z,8.10
2018-09-24T05:02:25.601Z,8.10
2018-09-24T05:04:59.196Z,8.20
2018-09-24T05:07:32.801Z,8.10
2018-09-24T05:10:06.116Z,8.10
2018-09-24T05:12:39.567Z,8.10
2018-09-24T05:15:12.955Z,8.10
2018-09-24T05:17:46.613Z,8.20
2018-09-24T05:20:20.192Z,8.30
2018-09-24T05:22:53.824Z,8.30
2018-09-24T05:25:27.272Z,8.40
2018-09-24T05:28:00.911Z,8.50
2018-09-24T05:30:34.405Z,8.70
2018-09-24T05:33:08.090Z,9.10
2018-09-24T05:35:41.582Z,9.30
2018-09-24T05:38:15.020Z,9.40
2018-09-24T05:40:48.566Z,9.20
2018-09-24T05:43:22.171Z,9.00
2018-09-24T05:46:02.744Z,8.80
2018-09-24T05:48:36.375Z,8.70
2018-09-24T05:51:10.080Z,8.70
2018-09-24T05:53:43.659Z,8.80
2018-09-24T05:56:17.099Z,8.70
2018-09-24T05:58:50.761Z,8.80
2018-09-24T06:01:24.382Z,8.70
2018-09-24T06:03:57.968Z,8.70
2018-09-24T06:06:31.583Z,8.90
2018-09-24T06:09:05.275Z,9.20
2018-09-24T06:11:38.872Z,9.40
2018-09-24T06:14:12.347Z,9.70
2018-09-24T06:16:45.973Z,9.80
2018-09-24T06:19:19.457Z,9.90
2018-09-24T06:21:53.071Z,10.10
2018-09-24T06:24:26.544Z,10.30
2018-09-24T06:27:00.284Z,10.60
2018-09-24T06:29:33.870Z,11.00
2018-09-24T06:32:07.505Z,11.20
2018-09-24T06:34:41.076Z,11.60
2018-09-24T06:37:14.700Z,11.90
2018-09-24T06:39:48.258Z,12.20
2018-09-24T06:42:21.886Z,12.30
2018-09-24T06:44:55.445Z,11.90
2018-09-24T06:47:28.959Z,11.50
2018-09-24T06:50:02.411Z,11.50
2018-09-24T06:52:35.848Z,11.90
2018-09-24T06:55:09.315Z,12.40
2018-09-24T06:57:42.798Z,12.70
2018-09-24T07:00:16.236Z,12.80
2018-09-24T07:02:49.879Z,12.80
2018-09-24T07:05:23.497Z,12.70
2018-09-24T07:07:56.936Z,12.60
2018-09-24T07:10:30.363Z,12.60
2018-09-24T07:13:03.784Z,13.00
2018-09-24T07:15:37.264Z,13.30
2018-09-24T07:18:10.589Z,13.70
2018-09-24T07:20:44.049Z,14.00
2018-09-24T07:23:17.756Z,14.30
2018-09-24T07:25:51.301Z,14.40
2018-09-24T07:28:25.057Z,14.60
2018-09-24T07:30:58.509Z,14.60
2018-09-24T07:33:32.159Z,14.60
2018-09-24T07:36:05.763Z,14.50
2018-09-24T07:38:39.355Z,14.60
2018-09-24T07:41:13.020Z,14.90
2018-09-24T07:43:46.531Z,15.30
2018-09-24T07:46:20.042Z,15.00
2018-09-24T07:48:53.479Z,14.80
2018-09-24T07:51:27.181Z,14.80
2018-09-24T07:54:00.592Z,14.90
2018-09-24T07:56:33.967Z,15.20
2018-09-24T07:59:07.606Z,15.40
2018-09-24T08:01:40.971Z,15.50
2018-09-24T08:04:14.552Z,15.20
2018-09-24T08:06:48.176Z,14.90
2018-09-24T08:09:21.836Z,15.10
2018-09-24T08:11:55.399Z,15.40
2018-09-24T08:14:28.835Z,15.00
2018-09-24T08:17:02.444Z,14.60
2018-09-24T08:19:36.003Z,14.90
2018-09-24T08:22:09.766Z,15.40
2018-09-24T08:24:43.299Z,15.60
2018-09-24T08:27:16.819Z,15.60
2018-09-24T08:29:50.429Z,15.90
2018-09-24T08:32:23.918Z,16.00
2018-09-24T08:34:57.360Z,15.60
2018-09-24T08:37:30.839Z,14.70
2018-09-24T08:40:04.292Z,13.90
2018-09-24T08:42:37.912Z,14.20
2018-09-24T08:45:11.295Z,14.80
2018-09-24T08:47:44.949Z,15.30
2018-09-24T08:50:18.446Z,15.60
2018-09-24T08:52:51.895Z,15.90
2018-09-24T08:55:25.299Z,16.00
2018-09-24T08:57:58.901Z,16.20
2018-09-24T09:00:32.557Z,16.30
2018-09-24T09:03:06.004Z,16.40
2018-09-24T09:05:39.481Z,16.60
2018-09-24T09:08:13.007Z,16.90
2018-09-24T09:10:46.612Z,17.20
2018-09-24T09:13:20.091Z,17.10
2018-09-24T09:15:53.683Z,16.90
2018-09-24T09:18:27.256Z,17.00
2018-09-24T09:21:00.908Z,17.10
2018-09-24T09:23:34.544Z,17.10
2018-09-24T09:26:08.144Z,17.20
2018-09-24T09:28:41.716Z,17.30
2018-09-24T09:31:15.184Z,17.00
2018-09-24T09:33:48.647Z,16.70
2018-09-24T09:36:22.095Z,16.40
2018-09-24T09:38:55.598Z,15.50
2018-09-24T09:41:29.028Z,15.20
2018-09-24T09:44:02.706Z,15.20
2018-09-24T09:46:36.088Z,15.10
2018-09-24T09:49:09.757Z,15.00
2018-09-24T09:51:43.236Z,15.20
2018-09-24T09:54:16.865Z,15.40
2018-09-24T09:56:50.476Z,15.70
2018-09-24T09:59:24.104Z,16.30
2018-09-24T10:01:57.643Z,16.50
2018-09-24T10:04:31.306Z,16.80
2018-09-24T10:07:04.807Z,17.00
2018-09-24T10:09:38.479Z,17.20
2018-09-24T10:12:12.067Z,17.50
2018-09-24T10:14:45.572Z,17.30
2018-09-24T10:17:19.198Z,16.50
2018-09-24T10:19:52.847Z,16.20
2018-09-24T10:22:26.383Z,16.60
2018-09-24T10:24:59.984Z,16.90
2018-09-24T10:27:33.470Z,16.70
2018-09-24T10:30:07.111Z,16.20
2018-09-24T10:32:40.599Z,15.80
2018-09-24T10:35:14.052Z,15.30
2018-09-24T10:37:47.519Z,14.90
2018-09-24T10:40:21.059Z,14.60
2018-09-24T10:42:54.660Z,14.30
2018-09-24T10:45:28.255Z,14.20
2018-09-24T10:48:01.888Z,14.10
2018-09-24T10:50:35.490Z,14.50
2018-09-24T10:53:09.208Z,15.20
2018-09-24T10:55:42.815Z,15.60
2018-09-24T10:58:16.268Z,16.00
2018-09-24T11:00:49.856Z,16.50
2018-09-24T11:03:23.587Z,16.50
2018-09-24T11:05:57.051Z,16.30
2018-09-24T11:08:30.564Z,16.20
2018-09-24T11:11:04.200Z,15.80
2018-09-24T11:13:37.897Z,15.10
2018-09-24T11:16:11.716Z,14.90
2018-09-24T11:18:44.917Z,14.50
2018-09-24T11:21:18.487Z,14.00
2018-09-24T11:23:52.172Z,13.70
2018-09-24T11:28:59.304Z,13.40
2018-09-24T11:31:33.050Z,13.30
2018-09-24T11:34:06.445Z,13.30
2018-09-24T11:36:39.912Z,13.40
2018-09-24T11:39:14.065Z,13.50
2018-09-24T11:41:47.758Z,13.80
2018-09-24T11:44:21.400Z,14.20
2018-09-24T11:46:55.134Z,14.60
2018-09-24T11:49:28.694Z,14.90
2018-09-24T11:52:02.197Z,15.00
2018-09-24T11:54:35.680Z,14.70
2018-09-24T11:57:09.164Z,14.30
2018-09-24T11:59:42.764Z,13.50
2018-09-24T12:02:16.264Z,12.60
2018-09-24T12:04:49.763Z,12.00
2018-09-24T12:07:23.252Z,11.70
2018-09-24T12:09:56.747Z,11.40
2018-09-24T12:12:30.227Z,11.40
2018-09-24T12:15:03.739Z,11.40
2018-09-24T12:17:37.313Z,11.50
2018-09-24T12:20:10.699Z,11.70
2018-09-24T12:22:44.370Z,12.00
2018-09-24T12:25:17.997Z,12.60
2018-09-24T12:27:51.510Z,13.00
2018-09-24T12:30:25.200Z,13.50
2018-09-24T12:32:58.647Z,13.70
2018-09-24T12:35:32.223Z,13.60
2018-09-24T12:38:05.724Z,13.20
2018-09-24T12:40:39.252Z,13.00
2018-09-24T12:43:12.733Z,12.90
2018-09-24T12:45:46.276Z,13.00
2018-09-24T12:48:19.881Z,13.20
2018-09-24T12:50:53.464Z,13.50
2018-09-24T12:53:26.935Z,13.60
2018-09-24T12:56:00.342Z,13.70
2018-09-24T12:58:33.808Z,13.80
2018-09-24T13:01:07.399Z,13.50
2018-09-24T13:03:41.015Z,13.10
2018-09-24T13:06:14.655Z,12.00
2018-09-24T13:08:48.093Z,11.00
2018-09-24T13:11:21.556Z,10.50
2018-09-24T13:13:55.042Z,10.20
2018-09-24T13:16:28.677Z,10.10
2018-09-24T13:19:02.355Z,10.00
2018-09-24T13:21:35.753Z,9.90
2018-09-24T13:24:09.347Z,9.80
2018-09-24T13:26:42.963Z,9.70
2018-09-24T13:29:16.414Z,9.50
2018-09-24T13:31:50.071Z,9.50
2018-09-24T13:34:23.643Z,9.50
2018-09-24T13:36:57.154Z,9.50
2018-09-24T13:39:30.748Z,9.60
2018-09-24T13:42:04.431Z,9.60
2018-09-24T13:44:38.013Z,9.70
2018-09-24T13:47:11.755Z,9.60
2018-09-24T13:49:45.084Z,9.60
2018-09-24T13:52:18.668Z,9.50
2018-09-24T13:54:52.099Z,9.40
2018-09-24T13:57:25.626Z,9.30
2018-09-24T13:59:59.136Z,9.20
2018-09-24T14:02:32.675Z,9.20
2018-09-24T14:05:06.459Z,9.20
2018-09-24T14:07:40.032Z,9.10
2018-09-24T14:10:13.552Z,8.90
2018-09-24T14:12:47.166Z,8.80
2018-09-24T14:15:20.830Z,8.70
2018-09-24T14:17:54.443Z,8.60
2018-09-24T14:20:27.883Z,8.60
2018-09-24T14:23:02.086Z,8.70
2018-09-24T14:25:35.701Z,8.70
2018-09-24T14:28:09.381Z,8.80
2018-09-24T14:30:42.924Z,8.90
2018-09-24T14:33:16.383Z,8.90
2018-09-24T14:35:49.880Z,9.10
2018-09-24T14:38:23.379Z,9.10
2018-09-24T14:40:56.935Z,9.30
2018-09-24T14:43:30.440Z,9.40
2018-09-24T14:46:03.893Z,9.40
2018-09-24T14:48:37.250Z,9.60
2018-09-24T14:51:10.691Z,9.60
2018-09-24T14:53:44.322Z,9.70
2018-09-24T14:56:17.875Z,9.80
2018-09-24T14:58:51.419Z,10.00
2018-09-24T15:01:24.903Z,10.10
2018-09-24T15:03:58.321Z,10.30
2018-09-24T15:06:31.944Z,10.30
2018-09-24T15:09:05.568Z,10.30
2018-09-24T15:11:39.016Z,10.30
2018-09-24T15:14:12.600Z,10.20
2018-09-24T15:16:46.123Z,10.20
2018-09-24T15:19:19.729Z,10.20
2018-09-24T15:21:53.347Z,10.10
2018-09-24T15:24:26.987Z,10.00
2018-09-24T15:27:00.533Z,9.90
2018-09-24T15:29:34.115Z,9.70
2018-09-24T15:32:07.691Z,9.60
2018-09-24T15:34:41.171Z,9.50
2018-09-24T15:37:14.587Z,9.50
2018-09-24T15:39:47.946Z,9.40
2018-09-24T15:42:21.479Z,9.50
2018-09-24T15:44:55.149Z,9.30
2018-09-24T15:47:28.720Z,9.20
2018-09-24T15:50:02.053Z,9.10
2018-09-24T15:52:35.707Z,9.10
2018-09-24T15:55:09.359Z,9.10
2018-09-24T15:57:42.852Z,9.00
2018-09-24T16:00:16.376Z,9.00
2018-09-24T16:02:50.079Z,9.00
2018-09-24T16:05:23.574Z,8.90
2018-09-24T16:07:57.207Z,8.90
2018-09-24T16:10:30.685Z,8.90
2018-09-24T16:13:04.239Z,9.00
2018-09-24T16:15:37.920Z,9.00
2018-09-24T16:18:11.524Z,9.00
2018-09-24T16:20:45.044Z,9.00
2018-09-24T16:23:18.776Z,9.00
2018-09-24T16:25:52.276Z,9.00
2018-09-24T16:28:25.891Z,8.90
2018-09-24T16:30:59.512Z,9.00
2018-09-24T16:33:33.090Z,9.10
2018-09-24T16:36:06.809Z,9.20
2018-09-24T16:38:40.272Z,9.20
2018-09-24T16:41:13.920Z,9.20
2018-09-24T16:43:47.472Z,9.10
2018-09-24T16:46:21.095Z,9.00
2018-09-24T16:48:54.727Z,8.80
2018-09-24T16:51:28.371Z,8.70
2018-09-24T16:54:01.888Z,8.60
2018-09-24T16:56:35.612Z,8.50
2018-09-24T16:59:09.090Z,8.30
2018-09-24T17:01:42.699Z,8.10
2018-09-24T17:04:16.192Z,8.00
2018-09-24T17:06:49.543Z,7.90
2018-09-24T17:09:23.101Z,7.80
2018-09-24T17:11:56.565Z,7.80
2018-09-24T17:14:30.024Z,7.70
2018-09-24T17:17:03.499Z,7.60
2018-09-24T17:19:36.951Z,7.50
2018-09-24T17:22:10.484Z,7.50
2018-09-24T17:24:44.083Z,7.40
2018-09-24T17:27:17.559Z,7.40
2018-09-24T17:29:50.995Z,7.30
2018-09-24T17:32:24.560Z,7.30
2018-09-24T17:34:58.188Z,7.30
2018-09-24T17:37:31.496Z,7.40
2018-09-24T17:40:05.080Z,7.40
2018-09-24T17:42:38.644Z,7.60
2018-09-24T17:45:12.188Z,7.60
2018-09-24T17:47:45.751Z,7.70
2018-09-24T17:50:19.332Z,7.70
2018-09-24T17:52:52.828Z,7.80
2018-09-24T17:55:26.347Z,7.80
2018-09-24T17:57:59.669Z,7.70
2018-09-24T18:00:33.254Z,7.70
2018-09-24T18:03:06.867Z,7.70
2018-09-24T18:05:40.407Z,7.60
2018-09-24T18:08:13.986Z,7.60
2018-09-24T18:10:47.636Z,7.50
2018-09-24T18:13:21.005Z,7.50
2018-09-24T18:15:54.536Z,7.60
2018-09-24T18:18:28.156Z,7.50
2018-09-24T18:21:01.716Z,7.40
2018-09-24T18:23:35.239Z,7.40
2018-09-24T18:26:08.838Z,7.30
2018-09-24T18:28:42.277Z,7.40
2018-09-24T18:31:15.766Z,7.40
2018-09-24T18:33:49.258Z,7.40
2018-09-24T18:36:22.728Z,7.40
2018-09-24T18:38:56.275Z,7.40
2018-09-24T18:41:29.848Z,7.40
2018-09-24T18:44:03.530Z,7.40
2018-09-24T18:46:37.151Z,7.40
2018-09-24T18:49:10.672Z,7.40
2018-09-24T18:51:44.303Z,7.40
2018-09-24T18:54:17.739Z,7.40
2018-09-24T18:56:51.345Z,7.50
2018-09-24T18:59:25.037Z,7.40
2018-09-24T19:01:58.519Z,7.30
2018-09-24T19:04:32.120Z,7.30
2018-09-24T19:07:05.419Z,7.30
2018-09-24T19:09:38.792Z,7.30
2018-09-24T19:12:12.280Z,7.30
2018-09-24T19:14:45.898Z,7.30
2018-09-24T19:17:19.319Z,7.30
2018-09-24T19:19:52.894Z,7.30
2018-09-24T19:22:26.507Z,7.30
2018-09-24T19:25:00.012Z,7.30
2018-09-24T19:27:33.487Z,7.20
2018-09-24T19:30:07.025Z,7.20
2018-09-24T19:32:40.726Z,7.30
2018-09-24T19:35:14.208Z,7.30
2018-09-24T19:37:47.591Z,7.30
2018-09-24T19:40:21.303Z,7.30
2018-09-24T19:42:54.780Z,7.30
2018-09-24T19:45:28.178Z,7.30
2018-09-24T19:48:01.789Z,7.20
2018-09-24T19:50:35.388Z,7.20
2018-09-24T19:53:08.955Z,7.20
2018-09-24T19:55:42.493Z,7.20
2018-09-24T19:58:16.106Z,7.20
2018-09-24T20:00:49.560Z,7.30
2018-09-24T20:03:23.232Z,7.30
2018-09-24T20:05:56.917Z,7.30
2018-09-24T20:08:30.616Z,7.30
2018-09-24T20:11:04.263Z,7.30
2018-09-24T20:13:37.896Z,7.40
2018-09-24T20:16:11.444Z,7.50
2018-09-24T20:18:45.232Z,7.40
2018-09-24T20:21:18.912Z,7.40
2018-09-24T20:23:52.472Z,7.40
2018-09-24T20:26:25.976Z,7.40
2018-09-24T20:28:59.604Z,7.40
2018-09-24T20:31:33.183Z,7.40
2018-09-24T20:34:06.680Z,7.40
2018-09-24T20:36:40.340Z,7.30
2018-09-24T20:39:14.263Z,7.30
2018-09-24T20:41:48.142Z,7.20
2018-09-24T20:44:21.843Z,7.20
2018-09-24T20:46:55.534Z,7.30
2018-09-24T20:49:29.148Z,7.20
2018-09-24T20:52:02.724Z,7.20
2018-09-24T20:54:36.176Z,7.30
2018-09-24T20:57:09.805Z,7.30
2018-09-24T20:59:43.317Z,7.30
2018-09-24T21:02:16.943Z,7.30
2018-09-24T21:04:50.410Z,7.40
2018-09-24T21:07:23.892Z,7.40
2018-09-24T21:09:57.521Z,7.40
2018-09-24T21:12:31.129Z,7.40
2018-09-24T21:15:04.596Z,7.40
2018-09-24T21:17:38.103Z,7.40
2018-09-24T21:20:11.604Z,7.40
2018-09-24T21:22:45.242Z,7.30
2018-09-24T21:25:18.818Z,7.30
2018-09-24T21:27:52.395Z,7.30
2018-09-24T21:30:25.928Z,7.30
2018-09-24T21:32:59.547Z,7.20
2018-09-24T21:35:33.215Z,7.10
2018-09-24T21:38:06.512Z,7.20
2018-09-24T21:40:39.964Z,7.30
2018-09-24T21:43:13.612Z,7.30
2018-09-24T21:45:47.156Z,7.40
2018-09-24T21:48:20.663Z,7.40
2018-09-24T21:50:54.267Z,7.30
2018-09-24T21:53:27.851Z,7.20
2018-09-24T21:56:01.349Z,7.20
2018-09-24T21:58:34.877Z,7.20
2018-09-24T22:01:08.540Z,7.20
2018-09-24T22:03:42.176Z,7.30
2018-09-24T22:06:15.488Z,7.30
2018-09-24T22:08:49.090Z,7.20
2018-09-24T22:11:22.573Z,7.20
2018-09-24T22:13:56.159Z,7.20
2018-09-24T22:16:29.766Z,7.30
2018-09-24T22:19:03.398Z,7.30
2018-09-24T22:21:36.911Z,7.40
2018-09-24T22:24:10.400Z,7.40
2018-09-24T22:26:43.789Z,7.40
2018-09-24T22:29:17.303Z,7.40
2018-09-24T22:31:50.860Z,7.30
2018-09-24T22:34:24.255Z,7.30
2018-09-24T22:36:57.563Z,7.30
2018-09-24T22:39:31.129Z,7.40
2018-09-24T22:42:04.620Z,7.40
2018-09-24T22:44:38.268Z,7.40
2018-09-24T22:47:11.704Z,7.30
2018-09-24T22:49:45.150Z,7.20
2018-09-24T22:52:18.636Z,7.20
2018-09-24T22:54:52.081Z,7.20
2018-09-24T22:57:25.396Z,7.20
2018-09-24T22:59:58.912Z,7.20
2018-09-24T23:02:32.570Z,7.20
2018-09-24T23:05:06.172Z,7.20
2018-09-24T23:07:39.703Z,7.30
2018-09-24T23:10:13.147Z,7.30
2018-09-24T23:12:46.757Z,7.30
2018-09-24T23:15:20.055Z,7.20
2018-09-24T23:17:53.630Z,7.20
2018-09-24T23:20:27.260Z,7.20
2018-09-24T23:23:00.959Z,7.30
2018-09-24T23:25:34.401Z,7.30
2018-09-24T23:28:07.897Z,7.30
2018-09-24T23:30:41.292Z,7.30
2018-09-24T23:33:14.780Z,7.30
2018-09-24T23:35:48.452Z,7.30
2018-09-24T23:38:21.931Z,7.30
2018-09-24T23:40:55.411Z,7.30
2018-09-24T23:43:29.011Z,7.40
2018-09-24T23:46:02.616Z,7.50
2018-09-24T23:48:36.266Z,7.60
2018-09-24T23:51:09.709Z,7.60
2018-09-24T23:53:43.343Z,7.70
2018-09-24T23:56:16.949Z,7.80
2018-09-24T23:58:50.635Z,7.80
